Time;durP1;ratioP1;P1;durP2;ratioP2;P2;SDS_P1;SDS_P2;PMS_P1;PMS_P2;Temp;Humidity;BMP_temperature;BMP_pressure;BME280_temperature;BME280_humidity;BME280_pressure;Samples;Min_cycle;Max_cycle;Signal;HPM_P1;HPM_P2
2022/03/24 00:01:21;;;;;;;;;40.50;36.25;;;;;13.02;34.20;101962.03;5035976;28;45436;-76
2022/03/24 00:03:46;;;;;;;;;40.25;33.50;;;;;13.00;34.62;101974.41;5036329;28;45500;-76
2022/03/24 00:06:13;;;;;;;;;45.25;36.75;;;;;12.93;34.38;101958.53;5036937;28;45418;-76
2022/03/24 00:08:38;;;;;;;;;38.75;35.75;;;;;12.88;34.40;101963.00;5036240;28;45441;-75
2022/03/24 00:11:03;;;;;;;;;49.25;39.75;;;;;12.87;34.54;101955.06;5036209;28;45432;-76
2022/03/24 00:13:29;;;;;;;;;35.25;32.50;;;;;12.82;34.45;101951.56;5035375;28;45426;-77
2022/03/24 00:15:54;;;;;;;;;44.25;36.25;;;;;12.79;34.43;101955.13;5035440;28;45603;-78
2022/03/24 00:18:19;;;;;;;;;45.75;39.75;;;;;12.75;34.44;101945.41;5047590;28;45406;-76
2022/03/24 00:20:45;;;;;;;;;43.50;40.50;;;;;12.71;34.55;101951.66;5030039;28;45417;-76
2022/03/24 00:23:10;;;;;;;;;39.00;35.75;;;;;12.67;35.08;101956.06;5034516;28;45483;-75
2022/03/24 00:25:35;;;;;;;;;40.50;36.25;;;;;12.66;34.69;101958.75;5035908;28;45459;-76
2022/03/24 00:28:01;;;;;;;;;39.50;32.75;;;;;12.62;34.86;101960.53;5035000;28;45477;-76
2022/03/24 00:30:26;;;;;;;;;44.25;35.75;;;;;12.54;34.56;101944.69;5036538;28;46113;-74
2022/03/24 00:32:52;;;;;;;;;9.00;9.00;;;;;12.58;35.21;101956.13;5034676;28;45548;-76
2022/03/24 00:35:17;;;;;;;;;40.25;35.00;;;;;12.56;35.24;101953.50;5036139;28;45788;-77
2022/03/24 00:37:43;;;;;;;;;53.25;39.75;;;;;12.54;35.22;101955.28;5039062;28;45496;-75
2022/03/24 00:40:09;;;;;;;;;37.00;34.75;;;;;12.49;35.09;101940.28;5055780;28;46317;-75
2022/03/24 00:42:36;;;;;;;;;41.75;29.25;;;;;12.48;35.16;101950.03;5044724;28;45457;-75
2022/03/24 00:45:07;;;;;;;;;38.00;35.50;;;;;12.42;34.95;101932.38;5034868;28;45624;-75
2022/03/24 00:47:35;;;;;;;;;45.50;36.00;;;;;12.44;35.15;101942.97;5034865;28;45658;-76
2022/03/24 00:50:01;;;;;;;;;44.00;38.75;;;;;12.40;36.03;101947.44;5034053;28;46922;-77
2022/03/24 00:52:26;;;;;;;;;39.75;33.50;;;;;12.37;35.67;101943.91;5034080;28;45565;-77
2022/03/24 00:54:52;;;;;;;;;41.75;35.75;;;;;12.33;35.73;101939.50;5035267;28;45339;-76
2022/03/24 00:57:17;;;;;;;;;40.25;35.00;;;;;12.23;35.60;101939.53;5033688;28;45402;-75
2022/03/24 00:59:42;;;;;;;;;44.25;34.25;;;;;12.25;35.60;101942.19;5035820;28;46102;-74
2022/03/24 01:02:09;;;;;;;;;38.00;35.50;;;;;12.21;36.12;101937.81;5036297;28;45437;-75
2022/03/24 01:04:36;;;;;;;;;40.00;33.50;;;;;12.20;35.16;101934.25;5034605;28;45451;-76
2022/03/24 01:07:03;;;;;;;;;32.25;31.75;;;;;12.16;35.93;101926.34;5034596;28;45568;-75
2022/03/24 01:09:29;;;;;;;;;31.50;29.75;;;;;12.15;36.65;101935.19;5033803;28;47316;-73
2022/03/24 01:13:00;;;;;;;;;33.75;33.75;;;;;12.09;36.16;101929.00;5132061;27;45466;-76
2022/03/24 01:15:27;;;;;;;;;39.25;33.50;;;;;12.01;36.65;101917.59;5110739;27;45526;-75
2022/03/24 01:17:53;;;;;;;;;43.25;36.00;;;;;12.00;36.24;101925.53;5111801;27;45551;-75
2022/03/24 01:20:19;;;;;;;;;34.50;32.00;;;;;12.00;36.28;101933.50;5111754;27;45447;-75
2022/03/24 01:22:45;;;;;;;;;44.25;36.00;;;;;11.99;36.41;101929.94;5110783;27;46298;-75
2022/03/24 01:25:11;;;;;;;;;44.75;33.25;;;;;11.96;36.51;101923.78;5120496;27;45497;-80
2022/03/24 01:27:38;;;;;;;;;47.50;39.75;;;;;11.91;36.53;101923.78;5090821;27;45362;-74
2022/03/24 01:30:09;;;;;;;;;38.50;31.50;;;;;11.93;36.44;101924.66;5090729;27;45539;-74
2022/03/24 01:32:37;;;;;;;;;46.25;37.25;;;;;11.94;36.45;101928.22;5090391;27;45496;-76
2022/03/24 01:35:07;;;;;;;;;40.00;34.25;;;;;11.90;36.12;101925.56;5100759;27;45510;-76
2022/03/24 01:37:34;;;;;;;;;38.75;37.00;;;;;11.85;36.18;101926.44;5111061;27;45371;-75
2022/03/24 01:40:00;;;;;;;;;31.00;30.25;;;;;11.87;36.39;101925.56;5111507;27;45344;-75
2022/03/24 01:42:26;;;;;;;;;41.50;29.75;;;;;11.82;36.10;101922.03;5110321;27;45385;-74
2022/03/24 01:44:55;;;;;;;;;34.00;31.50;;;;;11.80;36.44;101925.59;5112305;27;45526;-75
2022/03/24 01:47:21;;;;;;;;;44.50;37.50;;;;;11.75;36.34;101915.00;5121819;27;45445;-76
2022/03/24 01:49:48;;;;;;;;;41.25;37.00;;;;;11.76;36.65;101924.69;5111110;27;45510;-74
2022/03/24 01:52:15;;;;;;;;;45.75;37.25;;;;;11.75;36.57;101915.00;5126401;27;48014;-75
2022/03/24 01:54:53;;;;;;;;;34.00;29.75;;;;;11.73;36.78;101919.41;5109776;27;45582;-74
2022/03/24 01:57:19;;;;;;;;;40.00;34.50;;;;;11.70;36.77;101916.78;5108171;27;45524;-75
2022/03/24 01:59:45;;;;;;;;;41.00;38.25;;;;;11.64;37.05;101912.38;5110862;27;45556;-75
2022/03/24 02:02:11;;;;;;;;;38.75;33.75;;;;;11.61;37.34;101909.75;5111410;27;46198;-74
2022/03/24 02:04:37;;;;;;;;;38.75;34.00;;;;;11.59;37.18;101916.81;5111432;27;45415;-74
2022/03/24 02:07:05;;;;;;;;;43.00;32.75;;;;;11.54;37.17;101903.59;5112792;27;45464;-76
2022/03/24 02:09:31;;;;;;;;;42.00;39.50;;;;;11.54;37.54;101905.38;5132019;27;45282;-75
2022/03/24 02:11:57;;;;;;;;;34.00;29.50;;;;;11.48;37.04;101903.63;5113813;27;45919;-74
2022/03/24 02:14:23;;;;;;;;;46.50;38.75;;;;;11.47;37.22;101904.50;5108619;27;45501;-74
2022/03/24 02:16:49;;;;;;;;;48.50;38.75;;;;;11.47;37.13;101915.09;5110842;27;45497;-75
2022/03/24 02:19:23;;;;;;;;;28.00;26.00;;;;;11.45;37.36;101915.97;5102956;27;45551;-75
2022/03/24 02:21:52;;;;;;;;;34.50;32.00;;;;;11.40;36.99;101908.03;5089670;27;45511;-75
2022/03/24 02:24:19;;;;;;;;;39.00;34.00;;;;;11.41;37.41;101904.50;5084467;27;45526;-76
2022/03/24 02:26:46;;;;;;;;;42.50;37.25;;;;;11.36;37.84;101901.88;5096844;27;45322;-77
2022/03/24 02:29:14;;;;;;;;;37.00;33.25;;;;;11.35;37.57;101912.47;5095104;27;45379;-76
2022/03/24 02:31:43;;;;;;;;;58.25;41.25;;;;;11.30;38.15;101907.19;5097257;27;45361;-79
2022/03/24 02:36:55;;;;;;;;;42.50;37.75;;;;;11.27;37.97;101908.97;5067312;28;45509;-77
2022/03/24 02:39:22;;;;;;;;;46.25;34.00;;;;;11.26;37.95;101904.53;5074479;27;45595;-76
2022/03/24 02:41:51;;;;;;;;;41.00;33.75;;;;;11.22;38.14;101889.53;5077150;27;46081;-74
2022/03/24 02:44:17;;;;;;;;;37.25;32.25;;;;;11.19;38.28;101901.91;5075685;27;45638;-75
2022/03/24 02:46:47;;;;;;;;;37.00;34.25;;;;;11.17;38.48;101911.63;5076247;27;45432;-75
2022/03/24 02:49:24;;;;;;;;;43.25;40.25;;;;;11.12;38.43;101908.09;5074900;27;45644;-75
2022/03/24 02:51:54;;;;;;;;;43.25;39.25;;;;;11.09;38.60;101908.09;5082050;27;46521;-76
2022/03/24 02:54:21;;;;;;;;;34.25;32.50;;;;;11.05;38.57;101911.63;5095769;27;45429;-80
2022/03/24 02:56:48;;;;;;;;;56.75;39.25;;;;;11.02;38.66;101901.03;5097813;27;45575;-80
2022/03/24 02:59:14;;;;;;;;;45.75;36.00;;;;;10.95;38.90;101899.31;5094505;27;45572;-80
2022/03/24 03:01:45;;;;;;;;;39.50;33.00;;;;;11.02;38.60;101911.63;5096442;27;45451;-79
2022/03/24 03:04:12;;;;;;;;;35.25;33.50;;;;;10.95;38.90;101897.53;5099718;27;45358;-80
2022/03/24 03:06:38;;;;;;;;;40.75;34.50;;;;;10.93;39.21;101901.03;5092320;27;45576;-80
2022/03/24 03:09:04;;;;;;;;;41.25;36.00;;;;;10.93;39.10;101908.97;5097390;27;45525;-79
2022/03/24 03:11:33;;;;;;;;;24.50;19.25;;;;;10.91;38.47;101903.69;5090814;27;45384;-78
2022/03/24 03:14:01;;;;;;;;;38.75;34.75;;;;;10.91;38.67;101908.97;5076081;27;45387;-79
2022/03/24 03:16:28;;;;;;;;;42.00;36.00;;;;;10.91;38.99;101903.69;5095588;27;45384;-80
2022/03/24 03:18:55;;;;;;;;;38.25;33.00;;;;;10.86;39.50;101891.38;5096467;27;45392;-80
2022/03/24 03:21:21;;;;;;;;;40.50;32.75;;;;;10.86;39.18;101904.59;5079967;27;45402;-80
2022/03/24 03:23:46;;;;;;;;;34.75;33.50;;;;;10.82;39.63;101898.41;5075347;27;45508;-79
2022/03/24 03:26:12;;;;;;;;;36.00;32.50;;;;;10.75;39.93;101894.88;5080741;27;45394;-79
2022/03/24 03:28:39;;;;;;;;;39.00;32.00;;;;;10.75;39.53;101902.81;5074938;27;45578;-80
2022/03/24 03:31:05;;;;;;;;;39.50;36.00;;;;;10.75;39.75;101910.75;5087809;27;45544;-80
2022/03/24 03:33:32;;;;;;;;;31.75;27.75;;;;;10.72;39.93;101908.13;5097903;27;45427;-80
2022/03/24 03:35:57;;;;;;;;;37.00;32.25;;;;;10.69;40.16;101908.13;5100904;27;45356;-80
2022/03/24 03:38:24;;;;;;;;;36.25;32.25;;;;;10.66;40.50;101902.81;5086797;27;45361;-79
2022/03/24 03:40:50;;;;;;;;;43.25;31.00;;;;;10.61;40.02;101904.56;5075569;27;45377;-80
2022/03/24 03:43:16;;;;;;;;;35.00;33.25;;;;;10.60;40.70;101913.41;5075810;27;45501;-80
2022/03/24 03:45:41;;;;;;;;;35.50;31.75;;;;;10.58;39.95;101916.03;5075345;27;45470;-80
2022/03/24 03:48:07;;;;;;;;;31.50;31.50;;;;;10.55;40.02;101913.38;5078489;28;45381;-80
2022/03/24 03:50:33;;;;;;;;;47.50;42.00;;;;;10.50;40.20;101904.56;5081076;27;46261;-79
2022/03/24 03:53:00;;;;;;;;;38.00;32.25;;;;;10.53;39.99;101915.13;5095215;27;45485;-80
2022/03/24 03:55:26;;;;;;;;;35.50;30.50;;;;;10.49;39.95;101906.31;5094031;27;45334;-80
2022/03/24 03:57:51;;;;;;;;;34.00;30.50;;;;;10.51;40.13;101902.78;5096947;27;45635;-80
2022/03/24 04:03:04;;;;;;;;;39.75;32.75;;;;;10.47;40.49;101910.72;5076253;28;45369;-80
2022/03/24 04:05:31;;;;;;;;;34.00;32.00;;;;;10.45;40.63;101899.25;5086163;27;45373;-79
2022/03/24 04:07:56;;;;;;;;;35.25;29.25;;;;;10.46;40.28;101901.03;5099450;27;45571;-80
2022/03/24 04:10:22;;;;;;;;;36.00;30.25;;;;;10.43;40.91;101910.69;5091283;27;46100;-79
2022/03/24 04:12:50;;;;;;;;;39.00;30.50;;;;;10.32;40.88;101892.16;5075704;28;45525;-79
2022/03/24 04:15:16;;;;;;;;;23.00;16.75;;;;;10.33;41.28;101904.53;5078889;27;45353;-80
2022/03/24 04:17:41;;;;;;;;;39.25;34.25;;;;;10.30;41.43;101912.41;5074836;27;45384;-80
2022/03/24 04:20:08;;;;;;;;;36.25;31.00;;;;;10.28;41.30;101900.97;5084065;27;45979;-80
2022/03/24 04:22:35;;;;;;;;;46.75;34.75;;;;;10.23;41.60;101897.41;5094351;27;45460;-79
2022/03/24 04:25:00;;;;;;;;;32.00;22.50;;;;;10.20;41.06;101897.41;5095501;27;45491;-79
2022/03/24 04:27:26;;;;;;;;;35.00;29.00;;;;;10.23;41.67;101908.00;5087166;27;45648;-81
2022/03/24 04:29:51;;;;;;;;;38.75;34.00;;;;;10.20;41.43;101905.34;5074014;27;45401;-76
2022/03/24 04:32:16;;;;;;;;;42.00;37.00;;;;;10.17;41.99;101897.41;5084549;27;45432;-75
2022/03/24 04:34:42;;;;;;;;;43.50;36.00;;;;;10.14;42.05;101912.38;5078155;27;45496;-74
2022/03/24 04:37:07;;;;;;;;;48.00;34.50;;;;;10.10;42.39;101894.75;5074071;27;45419;-75
2022/03/24 04:39:33;;;;;;;;;39.75;29.00;;;;;10.15;42.42;101910.63;5061960;27;46263;-74
2022/03/24 04:41:59;;;;;;;;;35.50;32.75;;;;;10.10;42.64;101897.38;5094594;27;45444;-75
2022/03/24 04:44:24;;;;;;;;;36.50;28.75;;;;;10.08;42.17;101903.53;5081360;27;45340;-75
2022/03/24 04:46:50;;;;;;;;;34.75;26.25;;;;;10.07;42.24;101902.66;5073954;27;45466;-75
2022/03/24 04:49:16;;;;;;;;;34.75;30.75;;;;;10.07;42.44;101907.94;5074484;27;45991;-74
2022/03/24 04:51:41;;;;;;;;;36.50;31.25;;;;;10.02;42.47;101904.41;5085660;27;45430;-75
2022/03/24 04:54:07;;;;;;;;;36.00;32.25;;;;;10.03;42.81;101906.16;5062875;27;45383;-74
2022/03/24 04:56:33;;;;;;;;;34.50;30.00;;;;;10.01;43.00;101900.00;5073824;27;45560;-74
2022/03/24 04:58:58;;;;;;;;;40.00;33.75;;;;;10.01;42.21;101901.78;5073770;27;46066;-75
2022/03/24 05:01:23;;;;;;;;;31.00;27.50;;;;;10.00;42.36;101900.00;5090648;27;45547;-76
2022/03/24 05:03:49;;;;;;;;;43.00;33.75;;;;;9.96;42.90;101893.84;5088855;27;45797;-76
2022/03/24 05:06:15;;;;;;;;;43.25;33.25;;;;;9.98;42.74;101896.47;5075129;27;45481;-75
2022/03/24 05:08:41;;;;;;;;;36.50;34.50;;;;;9.95;42.88;101894.72;5073506;27;46211;-75
2022/03/24 05:11:06;;;;;;;;;46.50;37.25;;;;;9.98;43.11;101902.63;5071526;27;45521;-76
2022/03/24 05:13:32;;;;;;;;;45.25;35.25;;;;;9.93;43.03;101894.69;5074139;27;45550;-78
2022/03/24 05:15:57;;;;;;;;;38.25;33.50;;;;;9.94;43.62;101892.94;5074474;27;45618;-80
2022/03/24 05:18:24;;;;;;;;;48.50;39.25;;;;;9.94;42.95;101895.56;5074293;27;46298;-80
2022/03/24 05:20:50;;;;;;;;;31.50;23.00;;;;;9.89;43.49;101897.31;5086166;27;45466;-81
2022/03/24 05:23:16;;;;;;;;;34.50;32.25;;;;;9.87;43.38;101904.34;5094528;27;45304;-75
2022/03/24 05:25:41;;;;;;;;;40.50;34.75;;;;;9.85;43.75;101903.47;5093016;27;45641;-76
2022/03/24 05:28:07;;;;;;;;;34.25;29.00;;;;;9.84;43.50;101905.22;5055028;28;46645;-79
2022/03/24 05:30:33;;;;;;;;;38.75;33.00;;;;;9.82;43.84;101901.69;5064206;27;45401;-80
2022/03/24 05:32:58;;;;;;;;;37.25;34.25;;;;;9.84;43.91;101914.88;5077669;27;45409;-81
2022/03/24 05:35:24;;;;;;;;;35.25;34.00;;;;;9.80;43.80;101903.44;5079072;27;45500;-75
2022/03/24 05:37:49;;;;;;;;;40.75;34.00;;;;;9.77;44.15;101906.94;5070999;27;45465;-76
2022/03/24 05:40:15;;;;;;;;;35.00;30.50;;;;;9.78;43.92;101903.44;5072686;27;45499;-75
2022/03/24 05:42:40;;;;;;;;;39.50;30.75;;;;;9.75;44.00;101911.34;5072413;27;45492;-75
2022/03/24 05:45:06;;;;;;;;;37.00;32.25;;;;;9.79;44.42;101917.50;5073092;27;45401;-75
2022/03/24 05:47:32;;;;;;;;;40.50;34.50;;;;;9.78;44.31;101916.63;5075065;27;46139;-80
2022/03/24 05:49:57;;;;;;;;;40.25;30.00;;;;;9.82;44.17;101911.38;5078436;27;45393;-78
2022/03/24 05:52:22;;;;;;;;;35.75;31.25;;;;;9.88;43.54;101916.69;5098563;27;45537;-80
2022/03/24 05:54:48;;;;;;;;;52.00;40.75;;;;;9.92;43.64;101908.78;5090080;27;45423;-80
2022/03/24 05:57:13;;;;;;;;;37.50;33.50;;;;;9.98;44.19;101915.84;5072502;27;48070;-76
2022/03/24 05:59:38;;;;;;;;;42.25;31.25;;;;;10.12;43.72;101914.13;5075906;27;45337;-75
2022/03/24 06:02:04;;;;;;;;;39.50;30.75;;;;;10.30;43.58;101917.72;5076814;27;45582;-75
2022/03/24 06:04:31;;;;;;;;;44.25;34.25;;;;;10.54;42.83;101916.03;5075288;27;45573;-76
2022/03/24 06:06:57;;;;;;;;;45.00;40.00;;;;;10.82;42.17;101912.50;5083587;27;46431;-76
2022/03/24 06:09:23;;;;;;;;;40.75;34.75;;;;;11.12;41.58;101912.50;5097103;27;45565;-74
2022/03/24 06:11:48;;;;;;;;;37.50;34.00;;;;;11.44;41.04;101907.16;5077108;27;45681;-76
2022/03/24 06:14:14;;;;;;;;;36.75;32.25;;;;;11.84;40.32;101903.47;5076488;27;45536;-75
2022/03/24 06:16:40;;;;;;;;;45.00;35.75;;;;;12.26;39.50;101918.31;5096813;27;46154;-80
2022/03/24 06:19:09;;;;;;;;;34.50;32.00;;;;;12.74;39.06;101919.78;5097997;27;45405;-80
2022/03/24 06:21:36;;;;;;;;;37.75;34.25;;;;;13.19;38.18;101911.44;5080494;27;45574;-80
2022/03/24 06:24:01;;;;;;;;;52.25;41.00;;;;;13.68;37.92;101916.25;5077434;27;45349;-79
2022/03/24 06:26:29;;;;;;;;;37.75;34.50;;;;;14.22;36.36;101912.91;5076078;27;46612;-80
2022/03/24 06:28:54;;;;;;;;;47.75;38.00;;;;;14.81;35.57;101907.59;5078263;27;45532;-80
2022/03/24 06:31:20;;;;;;;;;38.00;34.00;;;;;15.29;34.34;101904.13;5075683;27;45479;-80
2022/03/24 06:33:46;;;;;;;;;38.25;34.25;;;;;15.71;34.07;101906.81;5075230;28;45555;-80
2022/03/24 06:36:11;;;;;;;;;42.25;35.25;;;;;16.19;32.94;101907.66;5077322;28;45345;-81
2022/03/24 06:38:37;;;;;;;;;44.25;38.00;;;;;16.52;32.27;101914.88;5079517;27;45325;-79
2022/03/24 06:41:06;;;;;;;;;40.25;35.00;;;;;16.83;32.01;101906.09;5080154;27;45340;-81
2022/03/24 06:43:34;;;;;;;;;40.50;37.00;;;;;17.40;31.09;101912.66;5077092;27;45313;-80
2022/03/24 06:46:00;;;;;;;;;42.25;35.25;;;;;17.83;30.38;101891.84;5076370;27;46159;-81
2022/03/24 06:48:25;;;;;;;;;39.00;32.00;;;;;18.34;29.63;101905.50;5076714;27;45546;-81
2022/03/24 06:50:50;;;;;;;;;48.25;35.25;;;;;18.76;28.86;101897.00;5076162;27;45381;-81
2022/03/24 06:53:16;;;;;;;;;48.50;39.75;;;;;19.29;29.02;101896.97;5077360;27;45589;-81
2022/03/24 06:55:42;;;;;;;;;46.25;40.25;;;;;19.76;27.98;101896.16;5077076;27;45497;-77
2022/03/24 06:58:07;;;;;;;;;46.25;38.50;;;;;20.24;27.32;101905.09;5076032;27;45493;-76
2022/03/24 07:00:33;;;;;;;;;43.50;38.00;;;;;20.73;26.55;101905.81;5082443;27;45848;-77
2022/03/24 07:02:58;;;;;;;;;44.50;37.00;;;;;21.08;26.04;101900.75;5094686;27;45673;-76
2022/03/24 07:05:24;;;;;;;;;43.75;37.25;;;;;21.34;25.48;101904.09;5094595;27;45363;-77
2022/03/24 07:07:50;;;;;;;;;51.25;40.00;;;;;21.76;25.26;101908.53;5074298;27;45651;-77
2022/03/24 07:10:17;;;;;;;;;41.75;36.00;;;;;22.11;24.31;101907.81;5078416;27;45399;-77
2022/03/24 07:12:43;;;;;;;;;33.50;26.75;;;;;22.40;24.23;101903.75;5097161;27;45357;-77
2022/03/24 07:15:08;;;;;;;;;37.75;33.50;;;;;22.66;23.50;101901.59;5095883;27;45306;-77
2022/03/24 07:17:35;;;;;;;;;45.25;37.50;;;;;22.92;23.54;101900.25;5085981;27;45389;-76
2022/03/24 07:20:05;;;;;;;;;37.50;31.75;;;;;23.24;23.23;101895.94;5076184;27;45347;-75
2022/03/24 07:22:37;;;;;;;;;51.25;40.75;;;;;23.41;23.09;101897.72;5076117;27;45655;-81
2022/03/24 07:25:05;;;;;;;;;49.50;37.50;;;;;23.62;22.37;101905.59;5077791;27;46245;-81
2022/03/24 07:27:30;;;;;;;;;44.25;36.00;;;;;23.70;22.63;101892.59;5077514;27;45488;-82
2022/03/24 07:29:55;;;;;;;;;36.50;34.00;;;;;23.92;22.49;101896.81;5074042;27;45479;-81
2022/03/24 07:32:21;;;;;;;;;45.25;36.00;;;;;24.21;22.20;101899.72;5076123;27;45571;-80
2022/03/24 07:34:46;;;;;;;;;40.00;35.75;;;;;24.23;21.80;101901.38;5076276;27;45992;-81
2022/03/24 07:37:12;;;;;;;;;44.00;38.50;;;;;24.45;21.39;101900.13;5075124;28;45402;-79
2022/03/24 07:39:37;;;;;;;;;44.75;39.00;;;;;24.60;21.58;101910.06;5075806;27;45401;-81
2022/03/24 07:42:04;;;;;;;;;45.00;37.00;;;;;24.93;21.20;101914.47;5079269;27;45651;-81
2022/03/24 07:44:30;;;;;;;;;43.75;36.00;;;;;25.07;20.96;101907.31;5080593;27;45437;-81
2022/03/24 07:46:55;;;;;;;;;38.50;32.75;;;;;25.19;20.68;101912.88;5079266;27;45449;-80
2022/03/24 07:49:20;;;;;;;;;45.75;39.00;;;;;25.31;20.80;101922.13;5080778;27;45526;-81
2022/03/24 07:51:46;;;;;;;;;41.00;36.25;;;;;25.46;19.88;101914.00;5079423;27;45579;-81
2022/03/24 07:54:11;;;;;;;;;50.75;39.75;;;;;25.56;20.16;101912.47;5073818;27;45897;-76
2022/03/24 07:56:38;;;;;;;;;46.75;37.75;;;;;25.51;20.28;101918.16;5073312;27;45377;-77
2022/03/24 07:59:07;;;;;;;;;41.50;35.75;;;;;25.71;20.08;101922.34;5073806;27;45482;-77
2022/03/24 08:01:34;;;;;;;;;48.00;39.75;;;;;26.05;20.59;101914.81;5074241;27;45490;-76
2022/03/24 08:04:05;;;;;;;;;42.75;35.25;;;;;26.59;19.08;101927.53;5074686;27;45566;-77
2022/03/24 08:06:32;;;;;;;;;54.50;38.25;;;;;26.65;19.47;101919.94;5075179;27;45456;-76
2022/03/24 08:08:59;;;;;;;;;47.25;38.50;;;;;26.98;18.83;101922.28;5072224;27;45511;-78
2022/03/24 08:11:27;;;;;;;;;46.25;38.00;;;;;26.98;18.31;101921.38;5074205;27;45615;-77
2022/03/24 08:13:55;;;;;;;;;43.50;36.50;;;;;26.92;18.04;101915.41;5074226;27;45456;-77
2022/03/24 08:16:21;;;;;;;;;53.00;39.75;;;;;27.15;18.20;101922.91;5073315;27;45416;-77
2022/03/24 08:18:46;;;;;;;;;51.50;36.75;;;;;27.25;18.69;101922.16;5073702;27;45480;-77
2022/03/24 08:21:12;;;;;;;;;46.25;37.50;;;;;27.23;18.46;101920.56;5083855;27;45454;-76
2022/03/24 08:23:38;;;;;;;;;51.25;39.00;;;;;27.54;18.23;101915.72;5093586;27;46010;-77
2022/03/24 08:26:04;;;;;;;;;44.75;38.00;;;;;27.95;17.95;101917.28;5082092;27;45432;-80
2022/03/24 08:28:29;;;;;;;;;43.75;37.75;;;;;27.86;17.46;101913.38;5080145;27;45495;-80
2022/03/24 08:30:55;;;;;;;;;43.00;37.00;;;;;28.03;17.00;101923.09;5079548;27;45372;-79
2022/03/24 08:33:20;;;;;;;;;42.00;36.25;;;;;27.98;17.52;101922.53;5074733;27;46371;-81
2022/03/24 08:35:45;;;;;;;;;41.25;37.00;;;;;28.16;17.46;101920.31;5080373;27;45564;-74
2022/03/24 08:38:11;;;;;;;;;38.75;34.25;;;;;28.07;17.43;101924.56;5089874;27;45422;-75
2022/03/24 08:40:37;;;;;;;;;34.50;29.50;;;;;28.08;16.43;101920.03;5092602;27;45543;-76
2022/03/24 08:43:04;;;;;;;;;32.25;30.00;;;;;28.25;15.65;101924.22;5094821;27;46248;-79
2022/03/24 08:45:30;;;;;;;;;29.75;29.00;;;;;28.60;15.78;101923.44;5097300;27;45564;-79
2022/03/24 08:47:55;;;;;;;;;35.00;30.50;;;;;28.78;16.96;101916.59;5088663;27;45502;-81
2022/03/24 08:50:21;;;;;;;;;32.00;28.75;;;;;29.09;17.00;101925.09;5074397;27;45339;-81
2022/03/24 08:52:48;;;;;;;;;30.50;27.50;;;;;29.28;16.53;101929.16;5079080;27;45551;-79
2022/03/24 08:55:14;;;;;;;;;36.50;34.25;;;;;29.21;16.02;101935.09;5079572;27;45604;-80
2022/03/24 08:57:41;;;;;;;;;29.25;26.00;;;;;28.94;15.29;101921.75;5076898;27;45444;-80
2022/03/24 09:00:12;;;;;;;;;33.00;28.25;;;;;28.75;15.81;101944.03;5078773;27;45691;-75
2022/03/24 09:02:41;;;;;;;;;24.75;23.25;;;;;28.74;15.30;101936.00;5075880;27;45460;-77
2022/03/24 09:05:08;;;;;;;;;33.25;31.25;;;;;28.83;15.42;101933.47;5084272;27;45520;-74
2022/03/24 09:07:33;;;;;;;;;24.75;23.25;;;;;28.84;15.83;101946.06;5064700;27;45508;-77
2022/03/24 09:09:59;;;;;;;;;28.00;26.25;;;;;28.96;15.59;101946.97;5068181;27;45476;-76
2022/03/24 09:12:24;;;;;;;;;32.25;26.00;;;;;28.99;14.81;101938.56;5068603;27;46168;-77
2022/03/24 09:14:50;;;;;;;;;42.00;31.50;;;;;29.10;15.22;101939.59;5072431;27;45480;-78
2022/03/24 09:17:15;;;;;;;;;28.75;24.50;;;;;29.46;15.09;101938.59;5073139;27;45503;-76
2022/03/24 09:19:41;;;;;;;;;39.00;30.50;;;;;29.73;16.16;101945.53;5071779;27;45482;-86
2022/03/24 09:22:06;;;;;;;;;31.25;30.00;;;;;29.97;15.36;101933.69;5072830;27;46403;-77
2022/03/24 09:24:33;;;;;;;;;37.75;29.00;;;;;29.95;14.91;101945.56;5073104;28;45420;-80
2022/03/24 09:26:58;;;;;;;;;33.75;30.25;;;;;29.89;14.97;101940.63;5073104;27;45432;-77
2022/03/24 09:29:24;;;;;;;;;29.75;29.25;;;;;29.78;15.47;101935.16;5072487;27;45628;-76
2022/03/24 09:31:50;;;;;;;;;29.75;29.25;;;;;29.65;14.66;101942.59;5073518;27;45508;-76
2022/03/24 09:34:16;;;;;;;;;34.00;29.75;;;;;29.95;15.57;101944.72;5084420;27;45481;-77
2022/03/24 09:36:42;;;;;;;;;28.00;26.00;;;;;30.17;15.44;101945.69;5075356;27;45402;-77
2022/03/24 09:39:08;;;;;;;;;33.75;31.50;;;;;30.39;15.69;101939.34;5076197;27;45821;-75
2022/03/24 09:41:36;;;;;;;;;39.50;31.00;;;;;30.37;15.19;101949.47;5075291;27;46000;-77
2022/03/24 09:44:03;;;;;;;;;8.75;3.75;;;;;30.62;15.16;101937.44;5074739;27;45347;-77
2022/03/24 09:46:29;;;;;;;;;43.00;33.00;;;;;30.55;14.43;101942.53;5074594;28;45467;-75
2022/03/24 09:48:55;;;;;;;;;38.25;37.75;;;;;30.36;15.85;101936.88;5075470;28;45407;-76
2022/03/24 09:51:28;;;;;;;;;42.00;32.00;;;;;30.52;15.26;101941.91;5073648;27;47787;-76
2022/03/24 09:53:54;;;;;;;;;31.00;27.75;;;;;30.26;15.52;101932.19;5073857;27;45574;-76
2022/03/24 09:56:19;;;;;;;;;42.50;36.50;;;;;30.12;15.30;101935.16;5075875;27;45738;-81
2022/03/24 09:58:49;;;;;;;;;43.00;38.25;;;;;30.06;14.98;101941.13;5074256;27;45552;-76
2022/03/24 10:01:15;;;;;;;;;45.50;36.00;;;;;30.37;16.17;101933.13;5070136;27;45502;-78
2022/03/24 10:04:05;;;;;;;;;39.00;32.75;;;;;30.48;15.31;101925.81;5076635;27;45514;-80
2022/03/24 10:06:31;;;;;;;;;30.25;28.50;;;;;30.56;15.44;101937.94;5071516;27;45597;-77
2022/03/24 10:08:57;;;;;;;;;39.75;33.00;;;;;30.67;15.05;101915.22;5074226;27;45493;-81
2022/03/24 10:11:26;;;;;;;;;27.00;24.00;;;;;30.76;15.30;101923.50;5070603;27;46086;-76
2022/03/24 10:13:55;;;;;;;;;30.25;24.00;;;;;30.64;15.16;101935.44;5074112;27;45574;-75
2022/03/24 10:16:43;;;;;;;;;49.50;37.25;;;;;30.70;15.32;101928.59;5074576;27;45521;-81
2022/03/24 10:19:14;;;;;;;;;42.00;34.25;;;;;30.73;15.46;101929.22;5077238;27;45507;-81
2022/03/24 10:21:42;;;;;;;;;42.00;36.00;;;;;30.54;15.64;101923.59;5074344;28;46235;-78
2022/03/24 10:24:12;;;;;;;;;17.00;11.25;;;;;30.69;15.91;101926.88;5074893;27;45436;-77
2022/03/24 10:27:03;;;;;;;;;44.25;38.00;;;;;30.30;15.42;101917.28;5071360;27;45512;-77
2022/03/24 10:29:29;;;;;;;;;49.00;35.75;;;;;30.25;15.37;101926.84;5075286;27;45596;-81
2022/03/24 10:31:57;;;;;;;;;39.25;35.00;;;;;30.14;15.24;101922.28;5083864;27;46608;-81
2022/03/24 10:34:39;;;;;;;;;52.00;40.75;;;;;30.12;14.82;101919.69;5077707;27;45359;-81
2022/03/24 10:37:07;;;;;;;;;44.50;37.50;;;;;29.84;15.57;101931.97;5077098;27;45433;-81
2022/03/24 10:39:34;;;;;;;;;39.00;31.75;;;;;29.66;15.38;101917.09;5075036;27;45679;-76
2022/03/24 10:42:17;;;;;;;;;41.25;36.00;;;;;29.52;15.37;101912.75;5074572;27;46064;-77
2022/03/24 10:45:06;;;;;;;;;38.00;30.75;;;;;29.45;15.76;101915.06;5074165;27;45311;-77
2022/03/24 10:47:42;;;;;;;;;39.25;32.25;;;;;29.45;15.58;101914.22;5074788;27;45495;-77
2022/03/24 10:50:39;;;;;;;;;47.00;37.25;;;;;29.01;15.72;101913.97;5073525;27;45491;-77
2022/03/24 10:53:10;;;;;;;;;40.50;36.25;;;;;29.10;16.00;101913.25;5062063;27;46296;-77
2022/03/24 10:55:36;;;;;;;;;42.75;35.00;;;;;29.21;15.55;101920.59;5075327;27;45409;-77
2022/03/24 10:58:07;;;;;;;;;38.25;33.00;;;;;29.25;16.60;101916.66;5074738;28;45473;-78
2022/03/24 11:00:33;;;;;;;;;35.00;33.25;;;;;29.53;15.86;101918.06;5078339;27;45621;-78
2022/03/24 11:03:00;;;;;;;;;59.75;48.00;;;;;29.70;15.58;101927.63;5073689;27;46106;-78
2022/03/24 11:05:25;;;;;;;;;31.75;27.50;;;;;29.70;15.83;101922.16;5075469;27;45420;-77
2022/03/24 11:07:54;;;;;;;;;38.25;32.25;;;;;29.46;15.82;101918.69;5073579;27;45430;-77
2022/03/24 11:10:22;;;;;;;;;34.25;31.50;;;;;29.32;15.80;101909.75;5074985;27;45359;-81
2022/03/24 11:12:50;;;;;;;;;28.00;27.00;;;;;29.17;15.50;101911.78;5078222;27;46526;-84
2022/03/24 11:15:16;;;;;;;;;44.75;35.25;;;;;29.12;16.09;101905.81;5076571;27;45402;-78